RJCW(METAR)
07/17 15:00
METAR RJCW 170600Z 01004KT 310V060 9999 FEW020 SCT030 24/18 Q1012
RMK 1CU020 3CU030 A2989=
戻る
トップページへ戻る
IMOC Co,.Ltd.